sensor_id;sensor_type;location;lat;lon;timestamp;P1;durP1;ratioP1;P2;durP2;ratioP2
34924;SDS011;21130;51.728;8.748;2023-08-21T00:00:38;8.02;;;7.22;;
34924;SDS011;21130;51.728;8.748;2023-08-21T00:03:04;9.73;;;6.88;;
34924;SDS011;21130;51.728;8.748;2023-08-21T00:05:31;11.80;;;7.15;;
34924;SDS011;21130;51.728;8.748;2023-08-21T00:07:57;6.60;;;6.00;;
34924;SDS011;21130;51.728;8.748;2023-08-21T00:10:25;8.90;;;6.53;;
34924;SDS011;21130;51.728;8.748;2023-08-21T00:12:53;6.65;;;5.95;;
34924;SDS011;21130;51.728;8.748;2023-08-21T00:15:19;8.18;;;6.53;;
34924;SDS011;21130;51.728;8.748;2023-08-21T00:17:46;7.15;;;5.70;;
34924;SDS011;21130;51.728;8.748;2023-08-21T00:20:12;6.57;;;5.97;;
34924;SDS011;21130;51.728;8.748;2023-08-21T00:22:39;8.30;;;7.05;;
34924;SDS011;21130;51.728;8.748;2023-08-21T00:25:06;8.13;;;6.60;;
34924;SDS011;21130;51.728;8.748;2023-08-21T00:27:34;7.60;;;6.63;;
34924;SDS011;21130;51.728;8.748;2023-08-21T00:30:00;7.22;;;6.22;;
34924;SDS011;21130;51.728;8.748;2023-08-21T00:32:27;7.00;;;6.28;;
34924;SDS011;21130;51.728;8.748;2023-08-21T00:34:53;8.40;;;6.07;;
34924;SDS011;21130;51.728;8.748;2023-08-21T00:37:20;7.50;;;6.20;;
34924;SDS011;21130;51.728;8.748;2023-08-21T00:39:46;7.72;;;5.45;;
34924;SDS011;21130;51.728;8.748;2023-08-21T00:42:13;6.40;;;5.80;;
34924;SDS011;21130;51.728;8.748;2023-08-21T00:44:42;5.70;;;5.20;;
34924;SDS011;21130;51.728;8.748;2023-08-21T00:47:09;8.65;;;6.30;;
34924;SDS011;21130;51.728;8.748;2023-08-21T00:49:35;7.32;;;5.95;;
34924;SDS011;21130;51.728;8.748;2023-08-21T00:52:03;9.45;;;5.70;;
34924;SDS011;21130;51.728;8.748;2023-08-21T00:54:30;6.20;;;5.60;;
34924;SDS011;21130;51.728;8.748;2023-08-21T00:56:57;6.53;;;5.90;;
34924;SDS011;21130;51.728;8.748;2023-08-21T00:59:23;11.55;;;7.13;;
34924;SDS011;21130;51.728;8.748;2023-08-21T01:01:51;7.25;;;6.40;;
34924;SDS011;21130;51.728;8.748;2023-08-21T01:04:18;7.00;;;6.32;;
34924;SDS011;21130;51.728;8.748;2023-08-21T01:06:44;9.32;;;6.82;;
34924;SDS011;21130;51.728;8.748;2023-08-21T01:09:12;8.63;;;6.60;;
34924;SDS011;21130;51.728;8.748;2023-08-21T01:11:48;11.73;;;7.93;;
34924;SDS011;21130;51.728;8.748;2023-08-21T01:14:22;8.95;;;7.70;;
34924;SDS011;21130;51.728;8.748;2023-08-21T01:16:59;8.07;;;7.25;;
34924;SDS011;21130;51.728;8.748;2023-08-21T01:19:38;7.72;;;7.03;;
34924;SDS011;21130;51.728;8.748;2023-08-21T01:22:07;8.75;;;7.75;;
34924;SDS011;21130;51.728;8.748;2023-08-21T01:24:35;9.38;;;8.27;;
34924;SDS011;21130;51.728;8.748;2023-08-21T01:27:01;11.05;;;8.05;;
34924;SDS011;21130;51.728;8.748;2023-08-21T01:29:27;13.05;;;8.77;;
34924;SDS011;21130;51.728;8.748;2023-08-21T01:31:56;9.93;;;8.32;;
34924;SDS011;21130;51.728;8.748;2023-08-21T01:34:28;9.27;;;7.68;;
34924;SDS011;21130;51.728;8.748;2023-08-21T01:36:58;8.73;;;7.70;;
34924;SDS011;21130;51.728;8.748;2023-08-21T01:39:25;8.95;;;8.15;;
34924;SDS011;21130;51.728;8.748;2023-08-21T01:41:53;13.23;;;8.48;;
34924;SDS011;21130;51.728;8.748;2023-08-21T01:44:21;10.60;;;9.45;;
34924;SDS011;21130;51.728;8.748;2023-08-21T01:46:47;12.35;;;8.05;;
34924;SDS011;21130;51.728;8.748;2023-08-21T01:49:14;11.52;;;9.20;;
34924;SDS011;21130;51.728;8.748;2023-08-21T01:51:40;10.45;;;8.48;;
34924;SDS011;21130;51.728;8.748;2023-08-21T01:54:06;9.73;;;8.73;;
34924;SDS011;21130;51.728;8.748;2023-08-21T01:56:33;9.95;;;8.95;;
34924;SDS011;21130;51.728;8.748;2023-08-21T01:59:01;9.50;;;8.48;;
34924;SDS011;21130;51.728;8.748;2023-08-21T02:01:28;9.80;;;8.80;;
34924;SDS011;21130;51.728;8.748;2023-08-21T02:03:54;10.23;;;8.57;;
34924;SDS011;21130;51.728;8.748;2023-08-21T02:06:21;9.85;;;8.90;;
34924;SDS011;21130;51.728;8.748;2023-08-21T02:08:48;9.77;;;8.60;;
34924;SDS011;21130;51.728;8.748;2023-08-21T02:11:15;10.45;;;8.75;;
34924;SDS011;21130;51.728;8.748;2023-08-21T02:13:41;10.07;;;8.57;;
34924;SDS011;21130;51.728;8.748;2023-08-21T02:16:09;12.10;;;10.27;;
34924;SDS011;21130;51.728;8.748;2023-08-21T02:18:36;15.82;;;10.23;;
34924;SDS011;21130;51.728;8.748;2023-08-21T02:21:02;10.80;;;9.27;;
34924;SDS011;21130;51.728;8.748;2023-08-21T02:23:29;11.07;;;9.23;;
34924;SDS011;21130;51.728;8.748;2023-08-21T02:25:55;10.32;;;9.30;;
34924;SDS011;21130;51.728;8.748;2023-08-21T02:28:22;10.50;;;9.40;;
34924;SDS011;21130;51.728;8.748;2023-08-21T02:30:48;10.68;;;9.50;;
34924;SDS011;21130;51.728;8.748;2023-08-21T02:33:16;10.23;;;9.00;;
34924;SDS011;21130;51.728;8.748;2023-08-21T02:35:43;9.38;;;8.57;;
34924;SDS011;21130;51.728;8.748;2023-08-21T02:38:09;10.23;;;9.32;;
34924;SDS011;21130;51.728;8.748;2023-08-21T02:40:36;10.38;;;9.32;;
34924;SDS011;21130;51.728;8.748;2023-08-21T02:43:02;11.73;;;9.82;;
34924;SDS011;21130;51.728;8.748;2023-08-21T02:45:29;10.85;;;9.60;;
34924;SDS011;21130;51.728;8.748;2023-08-21T02:47:56;9.98;;;9.00;;
34924;SDS011;21130;51.728;8.748;2023-08-21T02:50:24;14.70;;;9.93;;
34924;SDS011;21130;51.728;8.748;2023-08-21T02:52:51;10.93;;;8.98;;
34924;SDS011;21130;51.728;8.748;2023-08-21T02:55:17;9.90;;;9.02;;
34924;SDS011;21130;51.728;8.748;2023-08-21T02:57:45;10.27;;;9.25;;
34924;SDS011;21130;51.728;8.748;2023-08-21T03:00:12;12.35;;;10.80;;
34924;SDS011;21130;51.728;8.748;2023-08-21T03:02:39;13.00;;;10.60;;
34924;SDS011;21130;51.728;8.748;2023-08-21T03:05:08;11.43;;;10.32;;
34924;SDS011;21130;51.728;8.748;2023-08-21T03:07:36;11.35;;;10.25;;
34924;SDS011;21130;51.728;8.748;2023-08-21T03:10:03;14.02;;;10.65;;
34924;SDS011;21130;51.728;8.748;2023-08-21T03:12:29;12.85;;;10.63;;
34924;SDS011;21130;51.728;8.748;2023-08-21T03:14:56;11.38;;;10.18;;
34924;SDS011;21130;51.728;8.748;2023-08-21T03:17:23;10.68;;;9.57;;
34924;SDS011;21130;51.728;8.748;2023-08-21T03:19:50;10.43;;;9.40;;
34924;SDS011;21130;51.728;8.748;2023-08-21T03:22:16;10.45;;;9.50;;
34924;SDS011;21130;51.728;8.748;2023-08-21T03:24:44;9.98;;;9.00;;
34924;SDS011;21130;51.728;8.748;2023-08-21T03:27:10;10.73;;;7.85;;
34924;SDS011;21130;51.728;8.748;2023-08-21T03:29:37;9.00;;;8.00;;
34924;SDS011;21130;51.728;8.748;2023-08-21T03:32:04;8.30;;;7.22;;
34924;SDS011;21130;51.728;8.748;2023-08-21T03:34:31;8.48;;;7.72;;
34924;SDS011;21130;51.728;8.748;2023-08-21T03:36:57;8.23;;;7.40;;
34924;SDS011;21130;51.728;8.748;2023-08-21T03:39:24;8.90;;;7.43;;
34924;SDS011;21130;51.728;8.748;2023-08-21T03:41:51;8.38;;;7.50;;
34924;SDS011;21130;51.728;8.748;2023-08-21T03:44:18;8.10;;;7.40;;
34924;SDS011;21130;51.728;8.748;2023-08-21T03:46:44;7.75;;;7.05;;
34924;SDS011;21130;51.728;8.748;2023-08-21T03:49:11;9.63;;;6.60;;
34924;SDS011;21130;51.728;8.748;2023-08-21T03:51:37;8.98;;;6.57;;
34924;SDS011;21130;51.728;8.748;2023-08-21T03:54:04;8.05;;;6.72;;
34924;SDS011;21130;51.728;8.748;2023-08-21T03:56:31;8.30;;;6.70;;
34924;SDS011;21130;51.728;8.748;2023-08-21T04:02:06;6.50;;;5.90;;
34924;SDS011;21130;51.728;8.748;2023-08-21T04:04:32;9.77;;;5.85;;
34924;SDS011;21130;51.728;8.748;2023-08-21T04:06:59;8.50;;;6.13;;
34924;SDS011;21130;51.728;8.748;2023-08-21T04:09:25;9.45;;;7.03;;
34924;SDS011;21130;51.728;8.748;2023-08-21T04:11:51;8.25;;;6.05;;
34924;SDS011;21130;51.728;8.748;2023-08-21T04:14:18;6.15;;;5.53;;
34924;SDS011;21130;51.728;8.748;2023-08-21T04:16:44;7.95;;;6.20;;
34924;SDS011;21130;51.728;8.748;2023-08-21T04:19:12;9.05;;;6.50;;
34924;SDS011;21130;51.728;8.748;2023-08-21T04:21:38;9.68;;;6.05;;
34924;SDS011;21130;51.728;8.748;2023-08-21T04:24:05;6.30;;;5.80;;
34924;SDS011;21130;51.728;8.748;2023-08-21T04:26:33;7.85;;;6.05;;
34924;SDS011;21130;51.728;8.748;2023-08-21T04:29:00;9.05;;;6.40;;
34924;SDS011;21130;51.728;8.748;2023-08-21T04:31:26;6.65;;;5.93;;
34924;SDS011;21130;51.728;8.748;2023-08-21T04:33:53;6.93;;;6.22;;
34924;SDS011;21130;51.728;8.748;2023-08-21T04:36:21;9.40;;;6.15;;
34924;SDS011;21130;51.728;8.748;2023-08-21T04:38:47;7.35;;;6.28;;
34924;SDS011;21130;51.728;8.748;2023-08-21T04:41:13;6.60;;;5.90;;
34924;SDS011;21130;51.728;8.748;2023-08-21T04:43:40;8.95;;;6.47;;
34924;SDS011;21130;51.728;8.748;2023-08-21T04:46:06;9.40;;;5.93;;
34924;SDS011;21130;51.728;8.748;2023-08-21T04:48:33;8.30;;;6.05;;
34924;SDS011;21130;51.728;8.748;2023-08-21T04:50:59;7.00;;;5.28;;
34924;SDS011;21130;51.728;8.748;2023-08-21T04:53:27;6.40;;;5.25;;
34924;SDS011;21130;51.728;8.748;2023-08-21T04:55:54;8.27;;;5.28;;
34924;SDS011;21130;51.728;8.748;2023-08-21T04:58:20;8.35;;;5.60;;
34924;SDS011;21130;51.728;8.748;2023-08-21T05:00:47;6.40;;;5.13;;
34924;SDS011;21130;51.728;8.748;2023-08-21T05:03:13;6.53;;;5.57;;
34924;SDS011;21130;51.728;8.748;2023-08-21T05:05:40;5.47;;;4.97;;
34924;SDS011;21130;51.728;8.748;2023-08-21T05:08:06;7.28;;;5.15;;
34924;SDS011;21130;51.728;8.748;2023-08-21T05:10:34;8.57;;;6.15;;
34924;SDS011;21130;51.728;8.748;2023-08-21T05:13:01;5.78;;;5.10;;
34924;SDS011;21130;51.728;8.748;2023-08-21T05:15:27;7.65;;;5.10;;
34924;SDS011;21130;51.728;8.748;2023-08-21T05:17:53;6.65;;;5.05;;
34924;SDS011;21130;51.728;8.748;2023-08-21T05:20:20;8.23;;;5.15;;
34924;SDS011;21130;51.728;8.748;2023-08-21T05:22:46;5.55;;;5.00;;
34924;SDS011;21130;51.728;8.748;2023-08-21T05:25:13;6.35;;;4.82;;
34924;SDS011;21130;51.728;8.748;2023-08-21T05:27:41;7.68;;;5.45;;
34924;SDS011;21130;51.728;8.748;2023-08-21T05:30:08;10.50;;;5.38;;
34924;SDS011;21130;51.728;8.748;2023-08-21T05:32:35;6.18;;;5.47;;
34924;SDS011;21130;51.728;8.748;2023-08-21T05:35:02;9.30;;;7.32;;
34924;SDS011;21130;51.728;8.748;2023-08-21T05:37:29;6.57;;;4.25;;
34924;SDS011;21130;51.728;8.748;2023-08-21T05:39:55;4.15;;;3.63;;
34924;SDS011;21130;51.728;8.748;2023-08-21T05:42:22;7.45;;;4.72;;
34924;SDS011;21130;51.728;8.748;2023-08-21T05:44:50;4.70;;;4.13;;
34924;SDS011;21130;51.728;8.748;2023-08-21T05:47:16;7.47;;;3.80;;
34924;SDS011;21130;51.728;8.748;2023-08-21T05:49:43;6.10;;;4.05;;
34924;SDS011;21130;51.728;8.748;2023-08-21T05:52:09;6.88;;;3.58;;
34924;SDS011;21130;51.728;8.748;2023-08-21T05:54:36;6.30;;;3.10;;
34924;SDS011;21130;51.728;8.748;2023-08-21T05:57:03;4.88;;;3.17;;
34924;SDS011;21130;51.728;8.748;2023-08-21T05:59:30;4.60;;;2.70;;
34924;SDS011;21130;51.728;8.748;2023-08-21T06:01:59;4.13;;;3.13;;
34924;SDS011;21130;51.728;8.748;2023-08-21T06:04:26;5.68;;;3.10;;
34924;SDS011;21130;51.728;8.748;2023-08-21T06:06:52;6.38;;;3.22;;
34924;SDS011;21130;51.728;8.748;2023-08-21T06:09:19;5.25;;;3.35;;
34924;SDS011;21130;51.728;8.748;2023-08-21T06:11:46;4.07;;;2.88;;
34924;SDS011;21130;51.728;8.748;2023-08-21T06:14:12;3.42;;;2.70;;
34924;SDS011;21130;51.728;8.748;2023-08-21T06:16:39;5.10;;;2.92;;
34924;SDS011;21130;51.728;8.748;2023-08-21T06:19:07;4.43;;;3.00;;
34924;SDS011;21130;51.728;8.748;2023-08-21T06:21:33;5.47;;;3.05;;
34924;SDS011;21130;51.728;8.748;2023-08-21T06:24:00;3.75;;;2.63;;
34924;SDS011;21130;51.728;8.748;2023-08-21T06:26:26;5.90;;;3.05;;
34924;SDS011;21130;51.728;8.748;2023-08-21T06:28:52;5.93;;;2.70;;
34924;SDS011;21130;51.728;8.748;2023-08-21T06:31:19;4.80;;;3.03;;
34924;SDS011;21130;51.728;8.748;2023-08-21T06:33:46;4.07;;;2.60;;
34924;SDS011;21130;51.728;8.748;2023-08-21T06:36:14;5.13;;;2.50;;
34924;SDS011;21130;51.728;8.748;2023-08-21T06:38:40;6.93;;;2.30;;
34924;SDS011;21130;51.728;8.748;2023-08-21T06:41:07;7.40;;;2.50;;
34924;SDS011;21130;51.728;8.748;2023-08-21T06:43:33;5.22;;;2.65;;
34924;SDS011;21130;51.728;8.748;2023-08-21T06:45:59;6.45;;;2.55;;
34924;SDS011;21130;51.728;8.748;2023-08-21T06:48:26;7.45;;;2.80;;
34924;SDS011;21130;51.728;8.748;2023-08-21T06:50:53;4.78;;;2.25;;
34924;SDS011;21130;51.728;8.748;2023-08-21T06:53:20;4.65;;;2.85;;
34924;SDS011;21130;51.728;8.748;2023-08-21T06:55:47;5.65;;;2.25;;
34924;SDS011;21130;51.728;8.748;2023-08-21T06:58:14;5.85;;;2.40;;
34924;SDS011;21130;51.728;8.748;2023-08-21T07:00:40;3.67;;;2.00;;
34924;SDS011;21130;51.728;8.748;2023-08-21T07:06:13;4.35;;;2.20;;
34924;SDS011;21130;51.728;8.748;2023-08-21T07:08:41;4.47;;;2.17;;
34924;SDS011;21130;51.728;8.748;2023-08-21T07:11:08;4.97;;;1.95;;
34924;SDS011;21130;51.728;8.748;2023-08-21T07:13:35;4.72;;;2.03;;
34924;SDS011;21130;51.728;8.748;2023-08-21T07:16:02;4.72;;;2.00;;
34924;SDS011;21130;51.728;8.748;2023-08-21T07:18:31;5.07;;;2.03;;
34924;SDS011;21130;51.728;8.748;2023-08-21T07:20:58;5.15;;;2.28;;
34924;SDS011;21130;51.728;8.748;2023-08-21T07:23:25;4.20;;;1.95;;
34924;SDS011;21130;51.728;8.748;2023-08-21T07:26:00;4.70;;;2.15;;
34924;SDS011;21130;51.728;8.748;2023-08-21T07:28:28;5.60;;;2.13;;
34924;SDS011;21130;51.728;8.748;2023-08-21T07:30:55;4.03;;;1.70;;
34924;SDS011;21130;51.728;8.748;2023-08-21T07:33:22;5.88;;;1.90;;
34924;SDS011;21130;51.728;8.748;2023-08-21T07:35:56;6.03;;;2.45;;
34924;SDS011;21130;51.728;8.748;2023-08-21T07:38:23;5.47;;;2.22;;
34924;SDS011;21130;51.728;8.748;2023-08-21T07:40:50;6.15;;;2.15;;
34924;SDS011;21130;51.728;8.748;2023-08-21T07:43:17;5.00;;;1.70;;
34924;SDS011;21130;51.728;8.748;2023-08-21T07:45:44;4.35;;;1.88;;
34924;SDS011;21130;51.728;8.748;2023-08-21T07:48:10;5.85;;;2.10;;
34924;SDS011;21130;51.728;8.748;2023-08-21T07:50:37;4.53;;;1.90;;
34924;SDS011;21130;51.728;8.748;2023-08-21T07:53:03;4.28;;;1.58;;
34924;SDS011;21130;51.728;8.748;2023-08-21T07:55:30;2.53;;;1.50;;
34924;SDS011;21130;51.728;8.748;2023-08-21T07:57:56;4.63;;;1.52;;
34924;SDS011;21130;51.728;8.748;2023-08-21T08:00:24;2.63;;;1.52;;
34924;SDS011;21130;51.728;8.748;2023-08-21T08:02:50;4.63;;;1.42;;
34924;SDS011;21130;51.728;8.748;2023-08-21T08:11:09;2.90;;;1.42;;
34924;SDS011;21130;51.728;8.748;2023-08-21T08:13:36;3.38;;;1.48;;
34924;SDS011;21130;51.728;8.748;2023-08-21T08:16:04;4.90;;;1.52;;
34924;SDS011;21130;51.728;8.748;2023-08-21T08:18:30;6.97;;;1.70;;
34924;SDS011;21130;51.728;8.748;2023-08-21T08:20:57;2.15;;;1.40;;
34924;SDS011;21130;51.728;8.748;2023-08-21T08:23:23;3.40;;;1.83;;
34924;SDS011;21130;51.728;8.748;2023-08-21T08:25:50;3.72;;;1.88;;
34924;SDS011;21130;51.728;8.748;2023-08-21T08:28:16;5.15;;;1.65;;
34924;SDS011;21130;51.728;8.748;2023-08-21T08:30:43;3.15;;;2.08;;
34924;SDS011;21130;51.728;8.748;2023-08-21T08:33:10;4.40;;;2.03;;
34924;SDS011;21130;51.728;8.748;2023-08-21T08:35:37;4.03;;;1.67;;
34924;SDS011;21130;51.728;8.748;2023-08-21T08:38:05;3.55;;;1.60;;
34924;SDS011;21130;51.728;8.748;2023-08-21T08:40:32;3.63;;;1.60;;
34924;SDS011;21130;51.728;8.748;2023-08-21T08:43:00;5.60;;;1.60;;
34924;SDS011;21130;51.728;8.748;2023-08-21T08:45:28;5.50;;;1.55;;
34924;SDS011;21130;51.728;8.748;2023-08-21T08:47:57;3.50;;;1.40;;
34924;SDS011;21130;51.728;8.748;2023-08-21T08:50:26;5.75;;;1.38;;
34924;SDS011;21130;51.728;8.748;2023-08-21T08:52:55;1.80;;;1.00;;
34924;SDS011;21130;51.728;8.748;2023-08-21T08:55:23;2.80;;;0.90;;
34924;SDS011;21130;51.728;8.748;2023-08-21T08:57:50;2.08;;;0.90;;
34924;SDS011;21130;51.728;8.748;2023-08-21T09:00:17;2.50;;;1.00;;
34924;SDS011;21130;51.728;8.748;2023-08-21T09:02:44;2.10;;;1.00;;
34924;SDS011;21130;51.728;8.748;2023-08-21T09:05:11;3.25;;;1.13;;
34924;SDS011;21130;51.728;8.748;2023-08-21T09:07:39;3.03;;;0.93;;
34924;SDS011;21130;51.728;8.748;2023-08-21T09:10:09;2.05;;;0.82;;
34924;SDS011;21130;51.728;8.748;2023-08-21T09:12:39;2.88;;;1.20;;
34924;SDS011;21130;51.728;8.748;2023-08-21T09:15:06;2.75;;;1.05;;
34924;SDS011;21130;51.728;8.748;2023-08-21T09:17:33;2.83;;;1.10;;
34924;SDS011;21130;51.728;8.748;2023-08-21T09:20:03;3.25;;;1.10;;
34924;SDS011;21130;51.728;8.748;2023-08-21T09:22:30;23.80;;;16.17;;
34924;SDS011;21130;51.728;8.748;2023-08-21T09:25:02;3.25;;;1.90;;
34924;SDS011;21130;51.728;8.748;2023-08-21T09:27:31;4.30;;;1.15;;
34924;SDS011;21130;51.728;8.748;2023-08-21T09:29:58;2.28;;;1.05;;
34924;SDS011;21130;51.728;8.748;2023-08-21T09:32:25;3.60;;;1.05;;
34924;SDS011;21130;51.728;8.748;2023-08-21T09:34:52;3.42;;;1.27;;
34924;SDS011;21130;51.728;8.748;2023-08-21T09:37:18;2.00;;;1.10;;
34924;SDS011;21130;51.728;8.748;2023-08-21T09:39:46;2.30;;;1.15;;
34924;SDS011;21130;51.728;8.748;2023-08-21T09:42:14;2.63;;;1.10;;
34924;SDS011;21130;51.728;8.748;2023-08-21T09:44:41;3.05;;;1.05;;
34924;SDS011;21130;51.728;8.748;2023-08-21T09:47:08;3.08;;;1.30;;
34924;SDS011;21130;51.728;8.748;2023-08-21T09:49:36;3.45;;;1.13;;
34924;SDS011;21130;51.728;8.748;2023-08-21T09:52:04;2.65;;;1.02;;
34924;SDS011;21130;51.728;8.748;2023-08-21T09:54:31;3.28;;;1.02;;
34924;SDS011;21130;51.728;8.748;2023-08-21T09:57:00;3.83;;;1.25;;
34924;SDS011;21130;51.728;8.748;2023-08-21T09:59:29;1.55;;;0.80;;
34924;SDS011;21130;51.728;8.748;2023-08-21T10:01:57;5.43;;;1.05;;
34924;SDS011;21130;51.728;8.748;2023-08-21T10:04:25;2.33;;;1.10;;
34924;SDS011;21130;51.728;8.748;2023-08-21T10:06:53;2.45;;;1.10;;
34924;SDS011;21130;51.728;8.748;2023-08-21T10:09:21;3.40;;;1.20;;
34924;SDS011;21130;51.728;8.748;2023-08-21T10:11:50;2.92;;;1.30;;
34924;SDS011;21130;51.728;8.748;2023-08-21T10:14:19;2.30;;;1.20;;
34924;SDS011;21130;51.728;8.748;2023-08-21T10:16:49;2.78;;;1.10;;
34924;SDS011;21130;51.728;8.748;2023-08-21T10:19:18;3.28;;;1.23;;
34924;SDS011;21130;51.728;8.748;2023-08-21T10:21:46;5.38;;;1.45;;
34924;SDS011;21130;51.728;8.748;2023-08-21T10:24:25;3.75;;;1.40;;
34924;SDS011;21130;51.728;8.748;2023-08-21T10:26:53;5.13;;;1.35;;
34924;SDS011;21130;51.728;8.748;2023-08-21T10:29:19;2.67;;;1.30;;
34924;SDS011;21130;51.728;8.748;2023-08-21T10:31:46;3.42;;;1.40;;
34924;SDS011;21130;51.728;8.748;2023-08-21T10:34:30;3.65;;;1.27;;
34924;SDS011;21130;51.728;8.748;2023-08-21T10:37:02;4.93;;;1.90;;
34924;SDS011;21130;51.728;8.748;2023-08-21T10:39:35;2.88;;;1.20;;
34924;SDS011;21130;51.728;8.748;2023-08-21T10:42:05;4.07;;;1.67;;
34924;SDS011;21130;51.728;8.748;2023-08-21T10:44:34;4.38;;;1.55;;
34924;SDS011;21130;51.728;8.748;2023-08-21T10:47:15;3.33;;;1.77;;
34924;SDS011;21130;51.728;8.748;2023-08-21T10:49:43;3.25;;;1.40;;
34924;SDS011;21130;51.728;8.748;2023-08-21T10:52:10;4.05;;;1.70;;
34924;SDS011;21130;51.728;8.748;2023-08-21T10:54:44;2.15;;;1.30;;
34924;SDS011;21130;51.728;8.748;2023-08-21T10:57:12;2.17;;;1.45;;
34924;SDS011;21130;51.728;8.748;2023-08-21T10:59:38;4.72;;;1.50;;
34924;SDS011;21130;51.728;8.748;2023-08-21T11:02:16;4.20;;;1.40;;
34924;SDS011;21130;51.728;8.748;2023-08-21T11:04:43;4.65;;;1.85;;
34924;SDS011;21130;51.728;8.748;2023-08-21T11:07:10;3.35;;;1.80;;
34924;SDS011;21130;51.728;8.748;2023-08-21T11:09:37;3.35;;;1.65;;
34924;SDS011;21130;51.728;8.748;2023-08-21T11:12:05;5.93;;;1.70;;
34924;SDS011;21130;51.728;8.748;2023-08-21T11:14:33;4.75;;;2.85;;
34924;SDS011;21130;51.728;8.748;2023-08-21T11:17:01;4.15;;;1.75;;
34924;SDS011;21130;51.728;8.748;2023-08-21T11:19:31;3.55;;;1.60;;
34924;SDS011;21130;51.728;8.748;2023-08-21T11:21:58;2.70;;;1.60;;
34924;SDS011;21130;51.728;8.748;2023-08-21T11:24:39;3.17;;;1.50;;
34924;SDS011;21130;51.728;8.748;2023-08-21T11:27:06;4.15;;;1.67;;
34924;SDS011;21130;51.728;8.748;2023-08-21T11:29:36;2.38;;;1.83;;
34924;SDS011;21130;51.728;8.748;2023-08-21T11:32:05;2.35;;;1.58;;
34924;SDS011;21130;51.728;8.748;2023-08-21T11:34:35;3.65;;;1.80;;
34924;SDS011;21130;51.728;8.748;2023-08-21T11:37:02;5.07;;;1.70;;
34924;SDS011;21130;51.728;8.748;2023-08-21T11:39:43;3.60;;;1.60;;
34924;SDS011;21130;51.728;8.748;2023-08-21T11:42:10;2.13;;;1.50;;
34924;SDS011;21130;51.728;8.748;2023-08-21T11:44:46;5.88;;;1.90;;
34924;SDS011;21130;51.728;8.748;2023-08-21T11:47:13;4.53;;;1.92;;
34924;SDS011;21130;51.728;8.748;2023-08-21T11:49:42;4.18;;;1.88;;
34924;SDS011;21130;51.728;8.748;2023-08-21T11:52:10;2.92;;;1.67;;
34924;SDS011;21130;51.728;8.748;2023-08-21T11:54:38;4.07;;;2.30;;
34924;SDS011;21130;51.728;8.748;2023-08-21T11:57:06;3.00;;;1.70;;
34924;SDS011;21130;51.728;8.748;2023-08-21T11:59:34;4.03;;;1.90;;
34924;SDS011;21130;51.728;8.748;2023-08-21T12:02:01;3.70;;;1.95;;
34924;SDS011;21130;51.728;8.748;2023-08-21T12:04:34;4.25;;;2.25;;
34924;SDS011;21130;51.728;8.748;2023-08-21T12:07:02;5.10;;;2.70;;
34924;SDS011;21130;51.728;8.748;2023-08-21T12:09:28;4.28;;;2.42;;
34924;SDS011;21130;51.728;8.748;2023-08-21T12:11:55;3.40;;;2.10;;
34924;SDS011;21130;51.728;8.748;2023-08-21T12:14:22;2.97;;;1.83;;
34924;SDS011;21130;51.728;8.748;2023-08-21T12:16:48;5.95;;;2.72;;
34924;SDS011;21130;51.728;8.748;2023-08-21T12:19:15;5.38;;;2.08;;
34924;SDS011;21130;51.728;8.748;2023-08-21T12:21:42;3.70;;;1.95;;
34924;SDS011;21130;51.728;8.748;2023-08-21T12:24:09;3.90;;;1.60;;
34924;SDS011;21130;51.728;8.748;2023-08-21T12:26:37;5.55;;;2.28;;
34924;SDS011;21130;51.728;8.748;2023-08-21T12:29:03;3.33;;;1.88;;
34924;SDS011;21130;51.728;8.748;2023-08-21T12:31:29;4.75;;;2.00;;
34924;SDS011;21130;51.728;8.748;2023-08-21T12:33:56;2.47;;;1.70;;
34924;SDS011;21130;51.728;8.748;2023-08-21T12:36:23;4.45;;;2.20;;
34924;SDS011;21130;51.728;8.748;2023-08-21T12:38:49;3.90;;;2.40;;
34924;SDS011;21130;51.728;8.748;2023-08-21T12:41:17;4.28;;;2.13;;
34924;SDS011;21130;51.728;8.748;2023-08-21T12:43:44;3.88;;;2.08;;
34924;SDS011;21130;51.728;8.748;2023-08-21T12:46:10;4.30;;;2.00;;
34924;SDS011;21130;51.728;8.748;2023-08-21T12:48:37;4.50;;;2.20;;
34924;SDS011;21130;51.728;8.748;2023-08-21T12:51:03;5.95;;;2.28;;
34924;SDS011;21130;51.728;8.748;2023-08-21T12:53:30;4.35;;;2.00;;
34924;SDS011;21130;51.728;8.748;2023-08-21T12:55:56;2.78;;;1.70;;
34924;SDS011;21130;51.728;8.748;2023-08-21T12:58:24;3.50;;;2.40;;
34924;SDS011;21130;51.728;8.748;2023-08-21T13:00:52;5.00;;;2.75;;
34924;SDS011;21130;51.728;8.748;2023-08-21T13:03:19;4.28;;;2.50;;
34924;SDS011;21130;51.728;8.748;2023-08-21T13:05:45;3.53;;;2.33;;
34924;SDS011;21130;51.728;8.748;2023-08-21T13:08:12;4.70;;;2.47;;
34924;SDS011;21130;51.728;8.748;2023-08-21T13:10:39;4.30;;;2.75;;
34924;SDS011;21130;51.728;8.748;2023-08-21T13:13:05;4.68;;;2.40;;
34924;SDS011;21130;51.728;8.748;2023-08-21T13:15:33;4.38;;;2.20;;
34924;SDS011;21130;51.728;8.748;2023-08-21T13:17:59;5.80;;;2.10;;
34924;SDS011;21130;51.728;8.748;2023-08-21T13:20:26;4.25;;;1.70;;
34924;SDS011;21130;51.728;8.748;2023-08-21T13:22:53;3.55;;;2.10;;
34924;SDS011;21130;51.728;8.748;2023-08-21T13:25:20;3.35;;;2.25;;
34924;SDS011;21130;51.728;8.748;2023-08-21T13:27:47;5.10;;;2.40;;
34924;SDS011;21130;51.728;8.748;2023-08-21T13:30:14;3.63;;;2.22;;
34924;SDS011;21130;51.728;8.748;2023-08-21T13:32:43;2.38;;;1.60;;
34924;SDS011;21130;51.728;8.748;2023-08-21T13:35:10;3.88;;;2.10;;
34924;SDS011;21130;51.728;8.748;2023-08-21T13:37:37;4.28;;;2.10;;
34924;SDS011;21130;51.728;8.748;2023-08-21T13:40:05;3.17;;;2.20;;
34924;SDS011;21130;51.728;8.748;2023-08-21T13:42:35;2.47;;;1.60;;
34924;SDS011;21130;51.728;8.748;2023-08-21T13:45:06;3.78;;;1.80;;
34924;SDS011;21130;51.728;8.748;2023-08-21T13:47:34;3.30;;;1.83;;
34924;SDS011;21130;51.728;8.748;2023-08-21T13:50:02;1.92;;;1.70;;
34924;SDS011;21130;51.728;8.748;2023-08-21T13:52:30;6.28;;;2.10;;
34924;SDS011;21130;51.728;8.748;2023-08-21T13:54:56;7.20;;;2.20;;
34924;SDS011;21130;51.728;8.748;2023-08-21T13:57:23;5.43;;;2.30;;
34924;SDS011;21130;51.728;8.748;2023-08-21T13:59:52;4.32;;;2.38;;
34924;SDS011;21130;51.728;8.748;2023-08-21T14:02:18;5.00;;;2.25;;
34924;SDS011;21130;51.728;8.748;2023-08-21T14:04:45;4.50;;;2.33;;
34924;SDS011;21130;51.728;8.748;2023-08-21T14:07:13;4.05;;;2.20;;
34924;SDS011;21130;51.728;8.748;2023-08-21T14:09:40;3.65;;;2.63;;
34924;SDS011;21130;51.728;8.748;2023-08-21T14:12:06;4.15;;;2.60;;
34924;SDS011;21130;51.728;8.748;2023-08-21T14:14:34;2.97;;;2.40;;
34924;SDS011;21130;51.728;8.748;2023-08-21T14:17:02;3.97;;;3.10;;
34924;SDS011;21130;51.728;8.748;2023-08-21T14:19:29;4.07;;;2.78;;
34924;SDS011;21130;51.728;8.748;2023-08-21T14:21:57;3.20;;;2.38;;
34924;SDS011;21130;51.728;8.748;2023-08-21T14:24:26;5.53;;;2.90;;
34924;SDS011;21130;51.728;8.748;2023-08-21T14:26:53;5.07;;;2.05;;
34924;SDS011;21130;51.728;8.748;2023-08-21T14:29:19;4.38;;;2.45;;
34924;SDS011;21130;51.728;8.748;2023-08-21T14:31:46;8.23;;;3.13;;
34924;SDS011;21130;51.728;8.748;2023-08-21T14:34:13;3.80;;;2.25;;
34924;SDS011;21130;51.728;8.748;2023-08-21T14:36:40;3.58;;;2.13;;
34924;SDS011;21130;51.728;8.748;2023-08-21T14:39:07;3.67;;;2.10;;
34924;SDS011;21130;51.728;8.748;2023-08-21T14:41:37;3.05;;;2.08;;
34924;SDS011;21130;51.728;8.748;2023-08-21T14:44:03;3.35;;;2.55;;
34924;SDS011;21130;51.728;8.748;2023-08-21T14:46:30;4.78;;;2.63;;
34924;SDS011;21130;51.728;8.748;2023-08-21T14:48:57;3.90;;;2.47;;
34924;SDS011;21130;51.728;8.748;2023-08-21T14:51:23;4.50;;;2.50;;
34924;SDS011;21130;51.728;8.748;2023-08-21T14:53:50;3.88;;;2.30;;
34924;SDS011;21130;51.728;8.748;2023-08-21T14:56:16;5.07;;;2.15;;
34924;SDS011;21130;51.728;8.748;2023-08-21T14:58:44;3.28;;;1.90;;